Time;durP1;ratioP1;P1;durP2;ratioP2;P2;SDS_P1;SDS_P2;PMS_P1;PMS_P2;Temp;Humidity;BMP_temperature;BMP_pressure;BME280_temperature;BME280_humidity;BME280_pressure;Samples;Min_cycle;Max_cycle;Signal;HPM_P1;HPM_P2
2022/11/08 00:01:30;;;;;;;29.20;15.10;;;;;;;8.53;76.72;99323.17;103371;1298;97966;-69
2022/11/08 00:03:11;;;;;;;32.90;16.70;;;;;;;8.53;76.65;99324.58;103300;1299;97980;-69
2022/11/08 00:14:01;;;;;;;30.30;15.40;;;;;;;8.53;76.68;99328.80;103356;1298;111792;-68
2022/11/08 00:16:30;;;;;;;30.30;16.60;;;;;;;8.52;76.67;99328.67;103407;1296;97873;-68
2022/11/08 00:18:58;;;;;;;28.30;15.00;;;;;;;8.50;76.69;99327.21;103365;1299;106825;-69
2022/11/08 00:21:26;;;;;;;27.80;14.80;;;;;;;8.49;76.65;99329.92;103389;1304;96684;-68
2022/11/08 00:23:54;;;;;;;29.10;15.00;;;;;;;8.49;76.67;99324.62;103431;1296;95476;-67
2022/11/08 00:26:22;;;;;;;28.80;15.10;;;;;;;8.49;76.67;99322.67;103468;1295;111819;-68
2022/11/08 00:28:51;;;;;;;29.10;14.90;;;;;;;8.48;76.74;99322.69;103376;1299;97907;-67
2022/11/08 00:31:19;;;;;;;31.60;15.50;;;;;;;8.45;76.68;99322.67;103344;1298;107709;-69
2022/11/08 00:33:47;;;;;;;32.90;16.60;;;;;;;8.44;76.76;99319.59;103410;1297;97936;-70
2022/11/08 00:36:15;;;;;;;32.40;16.60;;;;;;;8.43;76.70;99322.45;103354;1297;97787;-68
2022/11/08 00:38:43;;;;;;;27.10;15.10;;;;;;;8.43;76.65;99323.49;103460;1299;111348;-68
2022/11/08 00:41:13;;;;;;;28.40;15.40;;;;;;;8.44;76.82;99322.04;103402;1291;97872;-68
2022/11/08 00:43:43;;;;;;;29.80;15.70;;;;;;;8.44;76.63;99318.16;103312;1293;107770;-69
2022/11/08 00:46:12;;;;;;;28.60;15.00;;;;;;;8.43;76.74;99320.86;103489;1292;97839;-69
2022/11/08 00:48:40;;;;;;;28.20;14.80;;;;;;;8.42;76.65;99318.83;103441;1292;97874;-69
2022/11/08 00:51:11;;;;;;;30.20;16.20;;;;;;;8.41;76.66;99320.84;103399;1290;111787;-68
2022/11/08 00:53:41;;;;;;;27.80;14.30;;;;;;;8.40;76.76;99322.11;103425;1296;97722;-69
2022/11/08 00:56:12;;;;;;;29.00;14.50;;;;;;;8.38;76.65;99321.02;103403;1291;107412;-71
2022/11/08 00:58:40;;;;;;;26.90;13.50;;;;;;;8.35;76.73;99318.66;103515;1297;97978;-69
2022/11/08 01:01:15;;;;;;;29.60;15.60;;;;;;;8.33;76.67;99321.30;103483;1298;96947;-70
2022/11/08 01:03:47;;;;;;;31.80;14.90;;;;;;;8.31;76.76;99320.67;103477;1296;111751;-68
2022/11/08 01:06:17;;;;;;;27.70;14.10;;;;;;;8.31;76.70;99319.48;103425;1296;97874;-68
2022/11/08 01:08:48;;;;;;;27.40;14.20;;;;;;;8.28;76.65;99318.02;103430;1296;107656;-68
2022/11/08 01:11:20;;;;;;;25.80;13.30;;;;;;;8.26;76.65;99319.77;103403;1299;95295;-68
2022/11/08 01:13:54;;;;;;;28.80;14.90;;;;;;;8.23;76.66;99323.98;103430;1285;97876;-67
2022/11/08 01:16:25;;;;;;;29.40;14.10;;;;;;;8.21;76.64;99322.52;103437;1298;111066;-69
2022/11/08 01:18:57;;;;;;;28.50;14.40;;;;;;;8.17;76.60;99320.25;103503;1291;97907;-71
2022/11/08 01:21:27;;;;;;;28.70;15.10;;;;;;;8.15;76.67;99317.40;103454;1297;107520;-71
2022/11/08 01:23:57;;;;;;;27.70;13.60;;;;;;;8.14;76.68;99317.83;103384;1297;97979;-73
2022/11/08 01:26:29;;;;;;;28.10;14.00;;;;;;;8.11;76.69;99314.64;103412;1297;97003;-69
2022/11/08 01:28:59;;;;;;;26.90;14.00;;;;;;;8.09;76.52;99311.23;103418;1290;110991;-70
2022/11/08 01:31:29;;;;;;;28.70;14.30;;;;;;;8.05;76.65;99308.05;103410;1292;96302;-69
2022/11/08 01:34:00;;;;;;;28.60;15.40;;;;;;;8.02;76.50;99308.27;103410;1302;107462;-69
2022/11/08 01:36:29;;;;;;;28.10;13.90;;;;;;;8.00;76.70;99304.14;103464;1291;97991;-70
2022/11/08 01:38:56;;;;;;;26.40;13.10;;;;;;;7.97;76.50;99300.92;103456;1298;97869;-70
2022/11/08 01:41:27;;;;;;;28.80;13.60;;;;;;;7.94;76.60;99301.48;103438;1296;111673;-69
2022/11/08 01:43:59;;;;;;;28.30;13.80;;;;;;;7.91;76.74;99304.81;103277;1293;95682;-69
2022/11/08 01:46:32;;;;;;;;;;;;;;;7.90;76.62;99303.64;103485;1301;107758;-70
2022/11/08 01:49:23;;;;;;;26.50;13.40;;;;;;;7.86;76.74;99306.35;103373;1296;97883;-70
2022/11/08 01:52:01;;;;;;;27.00;12.80;;;;;;;7.84;76.67;99308.56;103397;1298;97949;-70
2022/11/08 01:54:36;;;;;;;27.80;14.50;;;;;;;7.82;76.58;99308.31;103398;1295;111472;-71
2022/11/08 01:57:13;;;;;;;29.30;13.40;;;;;;;7.79;76.67;99311.67;103442;1290;96916;-69
2022/11/08 01:59:46;;;;;;;28.40;13.70;;;;;;;7.77;76.64;99306.16;103456;1297;107679;-69
2022/11/08 02:02:16;;;;;;;29.00;13.90;;;;;;;7.74;76.71;99306.48;103404;1301;97956;-69
2022/11/08 02:04:44;;;;;;;28.80;14.40;;;;;;;7.72;76.68;99300.22;103419;1291;95312;-69
2022/11/08 02:07:16;;;;;;;28.10;14.30;;;;;;;7.71;76.79;99301.01;103429;1297;111964;-70
2022/11/08 02:09:47;;;;;;;26.30;12.40;;;;;;;7.70;76.84;99300.00;103513;1298;97909;-69
2022/11/08 02:12:20;;;;;;;28.60;13.90;;;;;;;7.69;76.69;99303.11;103500;1297;107462;-68
2022/11/08 02:14:48;;;;;;;27.20;14.30;;;;;;;7.68;76.72;99304.38;103410;1297;97952;-69
2022/11/08 02:17:18;;;;;;;27.90;13.50;;;;;;;7.66;76.73;99304.10;103322;1295;97880;-68
2022/11/08 02:19:49;;;;;;;26.20;13.40;;;;;;;7.66;76.73;99306.81;103467;1298;112137;-69
2022/11/08 02:22:27;;;;;;;28.60;14.10;;;;;;;7.64;76.68;99300.86;103492;1296;97932;-69
2022/11/08 02:24:59;;;;;;;30.20;15.00;;;;;;;7.62;76.58;99301.49;103513;1290;107529;-70
2022/11/08 02:27:27;;;;;;;28.30;13.40;;;;;;;7.61;76.67;99303.16;103557;1292;98551;-69
2022/11/08 02:29:57;;;;;;;28.90;13.90;;;;;;;7.59;76.68;99303.98;103419;1300;97818;-69
2022/11/08 02:32:25;;;;;;;26.90;13.00;;;;;;;7.57;76.69;99302.00;103510;1298;111388;-68
2022/11/08 02:34:59;;;;;;;28.80;14.10;;;;;;;7.56;76.73;99301.14;103413;1292;96187;-69
2022/11/08 02:37:29;;;;;;;25.70;13.30;;;;;;;7.53;76.72;99303.79;103441;1298;107779;-67
2022/11/08 02:39:57;;;;;;;31.00;12.80;;;;;;;7.51;76.69;99301.44;103462;1299;97944;-67
2022/11/08 02:42:25;;;;;;;27.80;13.50;;;;;;;7.48;76.71;99303.36;103524;1296;96943;-68
2022/11/08 02:44:53;;;;;;;26.40;13.70;;;;;;;7.48;76.61;99301.83;103378;1297;110714;-67
2022/11/08 02:47:23;;;;;;;27.10;13.60;;;;;;;7.44;76.60;99303.03;103354;1281;96220;-68
2022/11/08 02:49:51;;;;;;;28.40;14.50;;;;;;;7.43;76.65;99301.71;103388;1297;107256;-69
2022/11/08 02:52:19;;;;;;;28.00;14.30;;;;;;;7.41;76.56;99300.73;103403;1296;97861;-69
2022/11/08 02:54:47;;;;;;;26.80;12.80;;;;;;;7.40;76.66;99298.52;103368;1284;95562;-68
2022/11/08 02:57:15;;;;;;;28.00;14.00;;;;;;;7.38;76.64;99299.65;103292;1293;111039;-69
2022/11/08 02:59:42;;;;;;;29.40;13.70;;;;;;;7.37;76.57;99297.45;103395;1290;96268;-69
2022/11/08 03:02:10;;;;;;;27.30;13.10;;;;;;;7.35;76.50;99296.70;103404;1296;108219;-68
2022/11/08 03:04:40;;;;;;;29.50;13.10;;;;;;;7.33;76.50;99293.12;103384;1290;98082;-70
2022/11/08 03:07:08;;;;;;;28.40;13.90;;;;;;;7.30;76.71;99297.81;103484;1298;97838;-68
2022/11/08 03:09:38;;;;;;;28.00;13.50;;;;;;;7.27;76.50;99296.91;103405;1290;112142;-67
2022/11/08 03:12:06;;;;;;;30.00;14.60;;;;;;;7.24;76.51;99299.76;103422;1297;96175;-67
2022/11/08 03:14:34;;;;;;;29.00;13.50;;;;;;;7.21;76.53;99296.05;103415;1298;107909;-67
2022/11/08 03:17:03;;;;;;;28.60;13.60;;;;;;;7.19;76.50;99297.20;103404;1291;98072;-69
2022/11/08 03:19:35;;;;;;;28.90;14.50;;;;;;;7.17;76.46;99300.29;103485;1284;97861;-69
2022/11/08 03:22:03;;;;;;;27.50;14.10;;;;;;;7.14;76.56;99304.52;103407;1298;111680;-68
2022/11/08 03:24:32;;;;;;;29.30;14.30;;;;;;;7.11;76.51;99306.62;103382;1291;95568;-69
2022/11/08 03:27:02;;;;;;;28.40;14.30;;;;;;;7.08;76.42;99305.02;103410;1292;107110;-68
2022/11/08 03:29:33;;;;;;;30.20;14.70;;;;;;;7.06;76.36;99310.42;103391;1291;97942;-67
2022/11/08 03:32:00;;;;;;;27.30;13.70;;;;;;;7.05;76.67;99309.79;103421;1289;97966;-68
2022/11/08 03:34:28;;;;;;;29.20;14.40;;;;;;;7.05;76.56;99309.98;103405;1290;111841;-68
2022/11/08 03:36:58;;;;;;;29.60;14.80;;;;;;;7.04;76.82;99312.33;103408;1299;97932;-69
2022/11/08 03:39:26;;;;;;;27.20;13.80;;;;;;;7.03;76.76;99312.69;103415;1292;108102;-72
2022/11/08 03:41:54;;;;;;;27.60;13.50;;;;;;;7.03;76.73;99314.30;103471;1290;97870;-69
2022/11/08 03:44:22;;;;;;;29.50;14.60;;;;;;;7.03;76.62;99314.48;103496;1290;97917;-68
2022/11/08 03:46:49;;;;;;;29.30;14.50;;;;;;;7.03;76.61;99319.61;103508;1290;111439;-69
2022/11/08 03:49:17;;;;;;;28.40;13.70;;;;;;;7.03;76.66;99317.48;103425;1288;98193;-69
2022/11/08 03:51:48;;;;;;;30.00;14.90;;;;;;;7.03;76.63;99316.78;103529;1291;108399;-68
2022/11/08 03:54:15;;;;;;;29.50;14.10;;;;;;;7.01;76.75;99314.56;103410;1298;97935;-69
2022/11/08 03:56:45;;;;;;;34.60;14.90;;;;;;;6.98;76.60;99313.46;103472;1297;98420;-69
2022/11/08 03:59:13;;;;;;;27.40;13.70;;;;;;;6.95;76.56;99311.00;103478;1296;111730;-68
2022/11/08 04:01:43;;;;;;;28.20;13.40;;;;;;;6.92;76.65;99312.93;103445;1285;96172;-68
2022/11/08 04:04:11;;;;;;;29.80;14.20;;;;;;;6.87;76.45;99314.98;103508;1291;107322;-68
2022/11/08 04:06:39;;;;;;;29.10;14.70;;;;;;;6.82;76.53;99307.64;103550;1294;98715;-68
2022/11/08 04:09:07;;;;;;;30.10;14.80;;;;;;;6.79;76.55;99308.50;103629;1290;97877;-68
2022/11/08 04:17:08;;;;;;;29.70;15.20;;;;;;;6.82;76.89;99305.02;103364;1291;108473;-69
2022/11/08 04:22:22;;;;;;;31.70;15.30;;;;;;;6.83;76.90;99307.23;103423;1296;97897;-68
2022/11/08 04:24:49;;;;;;;30.20;15.00;;;;;;;6.83;76.79;99302.83;103393;1296;111700;-68
2022/11/08 04:27:17;;;;;;;28.70;14.90;;;;;;;6.83;76.53;99299.83;103527;1290;97959;-70
2022/11/08 04:29:45;;;;;;;29.70;13.70;;;;;;;6.84;76.76;99293.41;103451;1291;107771;-69
2022/11/08 04:32:13;;;;;;;31.10;15.00;;;;;;;6.86;76.71;99293.72;103488;1298;95180;-67
2022/11/08 04:34:41;;;;;;;32.00;15.70;;;;;;;6.85;76.88;99299.02;103422;1299;97836;-68
2022/11/08 04:37:11;;;;;;;31.50;15.00;;;;;;;6.85;76.84;99304.85;103463;1292;111636;-68
2022/11/08 04:39:39;;;;;;;30.30;15.00;;;;;;;6.85;76.92;99305.73;103530;1290;97958;-70
2022/11/08 04:42:07;;;;;;;29.10;15.30;;;;;;;6.86;77.07;99302.49;103452;1290;105554;-69
2022/11/08 04:44:35;;;;;;;32.50;16.60;;;;;;;6.88;76.97;99298.37;103352;1298;97844;-69
2022/11/08 04:47:03;;;;;;;30.70;15.30;;;;;;;6.89;77.04;99298.45;103500;1294;95118;-69
2022/11/08 04:49:31;;;;;;;30.20;14.90;;;;;;;6.92;77.04;99294.95;103498;1298;111720;-69
2022/11/08 04:51:59;;;;;;;33.40;14.60;;;;;;;6.94;77.02;99297.65;103517;1292;97924;-69
2022/11/08 04:54:26;;;;;;;28.80;14.70;;;;;;;6.96;76.93;99296.85;103529;1294;108182;-69
2022/11/08 04:56:54;;;;;;;33.10;15.30;;;;;;;6.96;77.04;99294.19;103414;1292;97925;-68
2022/11/08 04:59:22;;;;;;;28.10;14.00;;;;;;;6.97;76.97;99295.56;103483;1298;97925;-69
2022/11/08 05:01:50;;;;;;;30.60;15.30;;;;;;;6.98;76.88;99293.23;103415;1292;111988;-68
2022/11/08 05:04:20;;;;;;;31.00;15.80;;;;;;;6.98;77.03;99299.20;103514;1292;97900;-69
2022/11/08 05:06:48;;;;;;;30.20;15.20;;;;;;;6.99;77.05;99292.98;103457;1298;107827;-69
2022/11/08 05:09:15;;;;;;;29.20;15.70;;;;;;;7.00;77.07;99294.34;103384;1290;98751;-69
2022/11/08 05:11:43;;;;;;;30.70;15.50;;;;;;;7.01;77.01;99296.92;103365;1290;95447;-70
2022/11/08 05:14:11;;;;;;;32.40;15.90;;;;;;;7.03;77.07;99292.95;103390;1298;111038;-70
2022/11/08 05:16:39;;;;;;;30.60;15.70;;;;;;;7.04;77.21;99294.47;103420;1297;97685;-67
2022/11/08 05:19:07;;;;;;;32.40;16.60;;;;;;;7.06;77.30;99293.89;103346;1290;108110;-69
2022/11/08 05:24:27;;;;;;;29.90;16.30;;;;;;;7.07;77.20;99294.68;103433;1298;97853;-71
2022/11/08 05:26:55;;;;;;;32.00;15.40;;;;;;;7.07;77.03;99293.95;103272;1300;111825;-70
2022/11/08 05:29:22;;;;;;;30.60;16.00;;;;;;;7.07;76.97;99293.45;103396;1296;95202;-69
2022/11/08 05:31:50;;;;;;;31.00;15.70;;;;;;;7.06;77.00;99297.54;103420;1295;107714;-69
2022/11/08 05:34:20;;;;;;;33.90;16.10;;;;;;;7.07;77.07;99299.27;103346;1291;97118;-69
2022/11/08 05:36:48;;;;;;;30.20;14.60;;;;;;;7.08;77.23;99302.91;103509;1291;95174;-68
2022/11/08 05:39:18;;;;;;;29.10;15.00;;;;;;;7.09;77.19;99302.34;103478;1298;111650;-69
2022/11/08 05:41:46;;;;;;;30.80;15.80;;;;;;;7.09;77.13;99306.39;103466;1290;98564;-69
2022/11/08 05:44:14;;;;;;;30.70;16.00;;;;;;;7.09;77.29;99303.19;103441;1291;107733;-69
2022/11/08 05:46:42;;;;;;;32.30;15.90;;;;;;;7.09;77.05;99304.27;103351;1291;97842;-69
2022/11/08 05:49:10;;;;;;;31.20;15.70;;;;;;;7.09;77.14;99305.67;103483;1291;97882;-67
2022/11/08 05:51:38;;;;;;;37.60;17.70;;;;;;;7.08;77.30;99304.52;103394;1297;110387;-69
2022/11/08 05:54:07;;;;;;;29.80;15.20;;;;;;;7.08;77.20;99303.25;103357;1297;97972;-69
2022/11/08 05:56:36;;;;;;;29.90;15.00;;;;;;;7.07;77.20;99307.19;103484;1298;107092;-68
2022/11/08 05:59:04;;;;;;;34.50;17.20;;;;;;;7.08;77.30;99311.58;103503;1291;97963;-68
2022/11/08 06:01:34;;;;;;;36.30;17.30;;;;;;;7.07;77.23;99308.06;103493;1290;97874;-68
2022/11/08 06:04:04;;;;;;;35.00;17.90;;;;;;;7.09;77.24;99309.55;103244;1297;112455;-68
2022/11/08 06:06:32;;;;;;;34.60;17.20;;;;;;;7.11;77.23;99311.92;103463;1297;96236;-67
2022/11/08 06:09:03;;;;;;;31.20;16.20;;;;;;;7.13;77.38;99316.41;103409;1290;107524;-69
2022/11/08 06:11:30;;;;;;;34.40;17.90;;;;;;;7.14;77.21;99315.77;103374;1297;99555;-68
2022/11/08 06:14:00;;;;;;;32.20;16.40;;;;;;;7.16;77.23;99312.34;103404;1298;97967;-68
2022/11/08 06:16:28;;;;;;;35.30;17.60;;;;;;;7.18;77.26;99316.66;103402;1290;111744;-67
2022/11/08 06:18:58;;;;;;;33.80;15.90;;;;;;;7.19;77.29;99316.98;103403;1292;97967;-68
2022/11/08 06:21:26;;;;;;;31.70;16.80;;;;;;;7.20;77.61;99319.56;103389;1298;107752;-68
2022/11/08 06:23:54;;;;;;;33.00;16.80;;;;;;;7.22;77.47;99322.99;103367;1298;98305;-68
2022/11/08 06:26:24;;;;;;;34.40;16.80;;;;;;;7.22;77.68;99326.33;103472;1291;98937;-68
2022/11/08 06:28:52;;;;;;;34.40;17.10;;;;;;;7.24;77.44;99328.14;103526;1292;111642;-69
2022/11/08 06:31:21;;;;;;;35.80;17.60;;;;;;;7.26;77.51;99331.59;103528;1290;98752;-68
2022/11/08 06:33:49;;;;;;;37.50;17.90;;;;;;;7.28;77.63;99331.46;103443;1292;107723;-69
2022/11/08 06:36:17;;;;;;;34.70;17.60;;;;;;;7.29;77.38;99335.30;103481;1298;95219;-68
2022/11/08 06:38:45;;;;;;;31.90;16.70;;;;;;;7.30;77.64;99333.81;103537;1291;97834;-68
2022/11/08 06:41:18;;;;;;;33.10;16.50;;;;;;;7.34;77.70;99333.80;103435;1298;111814;-69
2022/11/08 06:43:48;;;;;;;32.80;16.90;;;;;;;7.37;77.70;99338.55;103393;1290;96508;-68
2022/11/08 06:46:16;;;;;;;33.30;17.40;;;;;;;7.40;77.42;99345.42;103316;1291;107847;-70
2022/11/08 06:48:44;;;;;;;32.60;17.20;;;;;;;7.44;77.70;99350.50;103632;1290;97978;-68
2022/11/08 06:51:13;;;;;;;34.20;16.70;;;;;;;7.48;77.53;99350.34;103463;1298;97829;-69
2022/11/08 06:53:43;;;;;;;32.80;16.80;;;;;;;7.51;77.60;99351.20;103420;1290;111659;-68
2022/11/08 06:56:11;;;;;;;32.90;16.80;;;;;;;7.56;77.59;99347.73;103251;1298;96941;-68
2022/11/08 06:58:39;;;;;;;34.90;17.10;;;;;;;7.61;77.61;99351.32;103511;1292;107079;-70
2022/11/08 07:01:09;;;;;;;35.10;17.20;;;;;;;7.67;77.57;99351.20;105011;1284;95488;-68
2022/11/08 07:03:37;;;;;;;30.30;15.80;;;;;;;7.72;77.58;99345.45;103935;1295;97013;-68
2022/11/08 07:06:07;;;;;;;32.40;17.40;;;;;;;7.79;77.68;99345.56;103374;1295;111784;-68
2022/11/08 07:08:35;;;;;;;33.30;16.90;;;;;;;7.86;77.59;99349.03;105214;1298;95547;-69
2022/11/08 07:11:03;;;;;;;34.10;17.50;;;;;;;7.95;77.52;99354.40;103491;1295;106268;-69
2022/11/08 07:13:31;;;;;;;34.20;16.80;;;;;;;8.02;77.57;99353.95;103378;1292;98189;-68
2022/11/08 07:16:01;;;;;;;34.00;17.60;;;;;;;8.09;77.49;99357.83;103350;1301;98370;-68
2022/11/08 07:18:29;;;;;;;35.30;17.60;;;;;;;8.14;77.61;99354.70;103517;1298;111281;-68
2022/11/08 07:21:02;;;;;;;32.70;17.40;;;;;;;8.18;77.56;99358.19;103521;1290;95136;-69
2022/11/08 07:23:32;;;;;;;36.50;17.60;;;;;;;8.20;77.60;99358.78;103328;1293;107531;-70
2022/11/08 07:26:07;;;;;;;35.80;17.10;;;;;;;8.18;77.45;99360.13;103461;1297;97938;-69
2022/11/08 07:28:35;;;;;;;32.60;17.40;;;;;;;8.19;77.57;99362.89;103551;1291;95524;-69
2022/11/08 07:31:06;;;;;;;34.60;18.30;;;;;;;8.22;77.63;99360.99;103519;1290;111797;-69
2022/11/08 07:33:36;;;;;;;35.10;17.00;;;;;;;8.24;77.62;99364.73;103301;1291;98402;-69
2022/11/08 07:36:04;;;;;;;32.20;17.50;;;;;;;8.29;77.79;99365.54;103484;1291;108097;-68
2022/11/08 07:38:32;;;;;;;30.70;16.70;;;;;;;8.33;77.70;99363.34;103461;1292;97998;-68
2022/11/08 07:41:03;;;;;;;34.30;18.70;;;;;;;8.36;77.67;99366.14;103480;1295;98319;-69
2022/11/08 07:43:31;;;;;;;38.50;18.70;;;;;;;8.39;77.84;99366.19;103500;1291;111750;-68
2022/11/08 07:46:02;;;;;;;34.30;17.60;;;;;;;8.40;77.84;99367.86;103433;1300;97681;-68
2022/11/08 07:48:30;;;;;;;36.00;18.30;;;;;;;8.43;77.84;99365.79;103503;1298;107204;-69
2022/11/08 07:51:00;;;;;;;34.70;17.90;;;;;;;8.43;77.84;99364.16;103493;1291;97912;-69
2022/11/08 07:53:29;;;;;;;33.00;18.20;;;;;;;8.46;77.91;99367.52;103289;1301;97914;-69
2022/11/08 07:55:57;;;;;;;35.60;17.70;;;;;;;8.49;77.88;99364.02;103518;1298;111362;-68
2022/11/08 07:58:25;;;;;;;35.20;17.60;;;;;;;8.56;77.99;99364.16;103454;1291;97719;-69
2022/11/08 08:01:02;;;;;;;31.30;16.90;;;;;;;8.62;77.97;99365.73;103470;1290;108188;-71
2022/11/08 08:03:32;;;;;;;35.10;17.70;;;;;;;8.68;77.97;99363.98;103545;1291;96956;-70
2022/11/08 08:06:02;;;;;;;35.60;18.50;;;;;;;8.75;77.98;99365.48;103541;1295;96264;-70
2022/11/08 08:08:30;;;;;;;32.80;17.80;;;;;;;8.83;77.94;99364.13;103471;1290;112059;-70
2022/11/08 08:11:04;;;;;;;34.30;17.60;;;;;;;8.88;77.99;99358.73;103428;1291;95617;-68
2022/11/08 08:13:31;;;;;;;33.10;17.30;;;;;;;8.93;77.84;99357.69;103451;1291;107464;-68
2022/11/08 08:16:02;;;;;;;35.80;16.70;;;;;;;8.99;77.89;99356.10;103478;1290;97952;-70
2022/11/08 08:18:30;;;;;;;34.30;17.50;;;;;;;9.05;78.01;99355.86;103498;1298;98266;-70
2022/11/08 08:21:00;;;;;;;34.20;17.60;;;;;;;9.13;77.92;99358.96;103539;1290;111672;-69
2022/11/08 08:23:28;;;;;;;34.10;18.10;;;;;;;9.19;77.92;99357.67;103588;1290;97886;-68
2022/11/08 08:25:56;;;;;;;35.60;17.30;;;;;;;9.27;77.96;99361.80;103459;1297;108047;-69
2022/11/08 08:28:24;;;;;;;32.30;17.10;;;;;;;9.34;77.94;99358.85;103545;1290;97848;-69
2022/11/08 08:30:52;;;;;;;30.60;16.10;;;;;;;9.43;77.93;99360.61;103532;1298;97932;-69
2022/11/08 08:33:22;;;;;;;33.80;17.10;;;;;;;9.49;77.61;99362.20;103428;1290;110878;-69
2022/11/08 08:36:03;;;;;;;30.70;16.60;;;;;;;9.58;77.87;99357.06;103408;1291;97975;-69
2022/11/08 08:38:35;;;;;;;33.20;16.20;;;;;;;9.72;77.78;99352.09;103404;1290;108094;-68
2022/11/08 08:41:11;;;;;;;31.80;16.50;;;;;;;9.94;77.95;99354.58;103308;1293;97895;-69
2022/11/08 08:43:39;;;;;;;33.10;16.60;;;;;;;10.22;78.09;99353.59;103409;1291;97934;-69
2022/11/08 08:46:10;;;;;;;30.50;16.20;;;;;;;10.52;78.10;99355.55;103262;1293;111517;-71
2022/11/08 08:48:37;;;;;;;30.30;15.90;;;;;;;10.83;77.93;99355.57;103376;1293;97971;-69
2022/11/08 08:51:08;;;;;;;31.40;15.80;;;;;;;11.13;78.01;99349.45;103374;1298;108167;-69
2022/11/08 08:53:36;;;;;;;32.40;16.30;;;;;;;11.51;77.89;99351.36;103396;1290;96934;-69
2022/11/08 08:56:07;;;;;;;31.40;15.60;;;;;;;11.87;77.90;99348.91;103416;1293;95216;-68
2022/11/08 08:58:35;;;;;;;30.00;14.90;;;;;;;12.25;77.56;99349.20;103380;1278;110773;-69
2022/11/08 09:01:11;;;;;;;30.10;15.30;;;;;;;12.51;76.93;99342.73;103279;1298;95231;-68
2022/11/08 09:04:05;;;;;;;30.50;14.10;;;;;;;12.80;76.48;99340.19;103389;1297;108204;-68
2022/11/08 09:06:33;;;;;;;27.90;14.30;;;;;;;13.20;77.02;99337.65;103399;1293;97913;-69
2022/11/08 09:09:03;;;;;;;27.30;13.10;;;;;;;13.69;76.68;99333.02;103448;1292;97899;-69
2022/11/08 09:11:30;;;;;;;26.70;14.70;;;;;;;14.11;76.29;99336.61;103465;1291;111756;-69
2022/11/08 09:13:58;;;;;;;25.10;12.70;;;;;;;14.51;74.88;99332.02;103578;1290;97883;-69
2022/11/08 09:16:26;;;;;;;28.60;13.50;;;;;;;14.58;75.26;99332.49;103534;1297;107722;-69
2022/11/08 09:18:54;;;;;;;27.50;13.50;;;;;;;14.63;75.51;99333.70;103533;1294;97887;-70
2022/11/08 09:21:22;;;;;;;25.90;13.80;;;;;;;14.57;75.30;99333.64;103437;1292;95216;-68
2022/11/08 09:23:50;;;;;;;29.40;14.60;;;;;;;14.55;75.90;99334.16;103408;1297;111684;-69
2022/11/08 09:26:18;;;;;;;24.60;12.80;;;;;;;14.66;76.00;99330.79;103523;1288;96236;-68
2022/11/08 09:28:46;;;;;;;27.70;14.30;;;;;;;14.73;76.12;99335.55;103406;1298;107972;-72
2022/11/08 09:31:14;;;;;;;25.70;13.90;;;;;;;14.81;76.04;99330.36;103519;1296;97816;-69
2022/11/08 09:33:48;;;;;;;25.60;13.00;;;;;;;14.92;75.88;99333.05;103446;1290;97974;-70
2022/11/08 09:36:18;;;;;;;25.60;13.30;;;;;;;14.96;75.97;99331.59;103406;1290;111135;-70
2022/11/08 09:38:46;;;;;;;29.80;14.20;;;;;;;14.96;75.19;99335.33;103522;1291;97876;-70
2022/11/08 09:41:42;;;;;;;23.70;13.00;;;;;;;14.84;75.36;99332.77;103498;1292;107535;-69
2022/11/08 09:44:26;;;;;;;26.10;13.00;;;;;;;14.82;75.44;99333.66;103266;1293;98560;-70
2022/11/08 09:47:03;;;;;;;25.90;13.50;;;;;;;14.86;75.46;99328.48;103334;1287;98406;-70
2022/11/08 09:50:04;;;;;;;23.20;12.40;;;;;;;14.97;75.33;99326.30;103458;1290;110753;-69
2022/11/08 09:52:34;;;;;;;23.80;12.30;;;;;;;15.07;75.18;99321.42;103502;1290;97888;-68
2022/11/08 09:55:37;;;;;;;26.60;12.60;;;;;;;15.14;74.92;99322.91;103491;1290;107848;-69
2022/11/08 09:58:18;;;;;;;26.60;13.50;;;;;;;15.12;73.95;99322.15;103528;1294;96454;-69
2022/11/08 10:00:49;;;;;;;28.90;12.40;;;;;;;14.98;74.35;99321.75;103403;1290;95201;-69
2022/11/08 10:03:23;;;;;;;25.40;13.40;;;;;;;14.89;73.61;99320.09;103495;1290;111784;-69
2022/11/08 10:05:57;;;;;;;28.00;13.40;;;;;;;14.68;72.78;99317.56;103574;1298;97675;-69
2022/11/08 10:08:41;;;;;;;24.60;12.90;;;;;;;14.49;73.15;99319.49;103427;1284;108023;-70
2022/11/08 10:11:27;;;;;;;26.20;13.40;;;;;;;14.38;73.29;99321.70;103291;1291;95266;-69
2022/11/08 10:14:32;;;;;;;25.40;13.60;;;;;;;14.34;73.33;99319.20;103457;1291;97969;-68
2022/11/08 10:17:23;;;;;;;25.40;12.90;;;;;;;14.29;72.82;99317.09;103405;1291;111726;-69
2022/11/08 10:20:20;;;;;;;25.10;12.90;;;;;;;14.33;73.23;99320.17;103397;1290;97963;-71
2022/11/08 10:23:09;;;;;;;24.10;12.40;;;;;;;14.43;73.06;99316.80;103395;1298;107364;-69
2022/11/08 10:25:58;;;;;;;25.70;13.00;;;;;;;14.48;72.19;99316.22;103390;1292;97962;-69
2022/11/08 10:28:42;;;;;;;28.10;11.90;;;;;;;14.36;71.76;99313.13;103434;1298;97888;-69
2022/11/08 10:31:17;;;;;;;23.80;12.50;;;;;;;14.33;72.23;99310.71;103380;1291;111793;-69
2022/11/08 10:33:58;;;;;;;24.30;11.80;;;;;;;14.38;72.40;99311.19;103258;1300;97803;-69
2022/11/08 10:36:48;;;;;;;25.20;12.20;;;;;;;14.53;72.57;99310.96;103403;1290;107752;-70
2022/11/08 10:39:29;;;;;;;23.20;12.20;;;;;;;14.74;72.38;99313.16;103477;1297;98460;-69
2022/11/08 10:42:16;;;;;;;24.90;11.40;;;;;;;14.91;72.48;99311.83;103471;1290;97867;-69
2022/11/08 10:44:44;;;;;;;21.30;10.30;;;;;;;15.01;71.92;99308.99;103404;1291;111999;-68
2022/11/08 10:47:30;;;;;;;23.00;12.00;;;;;;;15.09;71.75;99308.36;103382;1294;97888;-70
2022/11/08 10:49:59;;;;;;;22.80;11.40;;;;;;;15.01;71.07;99307.30;103383;1298;107141;-70
2022/11/08 10:52:45;;;;;;;22.40;10.80;;;;;;;14.98;71.52;99301.26;103405;1291;97984;-70
2022/11/08 10:55:37;;;;;;;22.60;11.80;;;;;;;15.10;71.60;99303.95;103332;1293;97980;-69
2022/11/08 10:58:32;;;;;;;23.60;11.60;;;;;;;15.24;71.33;99301.46;103394;1295;112458;-70
2022/11/08 11:01:13;;;;;;;24.80;12.10;;;;;;;15.28;71.07;99298.10;103401;1295;97834;-69
2022/11/08 11:03:43;;;;;;;22.20;10.60;;;;;;;15.26;71.04;99303.52;103526;1298;107320;-71
2022/11/08 11:06:20;;;;;;;22.30;11.50;;;;;;;15.27;70.70;99305.02;103519;1290;96943;-70
2022/11/08 11:09:00;;;;;;;25.50;11.20;;;;;;;15.32;71.05;99302.89;103508;1297;97965;-69
2022/11/08 11:11:31;;;;;;;22.70;11.00;;;;;;;15.37;71.05;99301.05;103478;1297;111419;-70
2022/11/08 11:14:12;;;;;;;22.10;11.10;;;;;;;15.44;70.67;99299.00;103413;1297;97848;-69
2022/11/08 11:16:57;;;;;;;23.90;12.20;;;;;;;15.53;70.71;99295.95;103339;1292;107078;-71
2022/11/08 11:19:28;;;;;;;26.00;12.50;;;;;;;15.59;70.55;99292.89;103524;1290;97960;-69
2022/11/08 11:22:10;;;;;;;21.90;11.10;;;;;;;15.64;70.05;99292.75;103334;1293;97995;-70
2022/11/08 11:24:50;;;;;;;23.10;11.40;;;;;;;15.59;69.79;99296.27;103413;1290;111244;-69
2022/11/08 11:27:40;;;;;;;25.10;11.40;;;;;;;15.57;69.66;99297.31;103525;1284;97839;-71
2022/11/08 11:30:11;;;;;;;24.30;11.80;;;;;;;15.51;69.88;99295.77;103348;1298;107528;-71
2022/11/08 11:32:55;;;;;;;24.10;11.70;;;;;;;15.40;69.06;99292.95;103536;1290;97969;-70
2022/11/08 11:35:37;;;;;;;24.80;11.40;;;;;;;15.39;69.71;99290.55;103433;1290;96874;-70
2022/11/08 11:38:17;;;;;;;23.20;10.50;;;;;;;15.45;69.36;99288.36;103422;1284;111540;-69
2022/11/08 11:40:51;;;;;;;25.80;11.60;;;;;;;15.40;69.28;99288.81;103451;1290;97734;-70
2022/11/08 11:43:34;;;;;;;23.70;10.70;;;;;;;15.35;69.09;99289.30;103507;1292;107547;-68
2022/11/08 11:46:40;;;;;;;22.00;10.30;;;;;;;15.37;69.36;99286.77;103481;1291;98519;-69
2022/11/08 11:49:20;;;;;;;21.50;10.70;;;;;;;15.49;68.90;99290.18;103445;1298;97866;-69
2022/11/08 11:51:54;;;;;;;22.70;10.10;;;;;;;15.54;68.88;99288.52;103530;1298;110824;-69